sensor_id;sensor_type;location;lat;lon;timestamp;P1;durP1;ratioP1;P2;durP2;ratioP2
10154;SDS011;5118;48.570;7.916;2022-10-16T00:01:43;3.50;;;2.60;;
10154;SDS011;5118;48.570;7.916;2022-10-16T00:04:12;5.22;;;3.10;;
10154;SDS011;5118;48.570;7.916;2022-10-16T00:06:41;4.22;;;2.65;;
10154;SDS011;5118;48.570;7.916;2022-10-16T00:09:09;4.05;;;2.88;;
10154;SDS011;5118;48.570;7.916;2022-10-16T00:11:38;4.37;;;2.73;;
10154;SDS011;5118;48.570;7.916;2022-10-16T00:14:08;7.00;;;2.77;;
10154;SDS011;5118;48.570;7.916;2022-10-16T00:16:39;3.07;;;2.60;;
10154;SDS011;5118;48.570;7.916;2022-10-16T00:19:09;6.63;;;2.47;;
10154;SDS011;5118;48.570;7.916;2022-10-16T00:21:38;7.73;;;2.90;;
10154;SDS011;5118;48.570;7.916;2022-10-16T00:24:25;7.83;;;2.63;;
10154;SDS011;5118;48.570;7.916;2022-10-16T00:26:54;3.43;;;2.70;;
10154;SDS011;5118;48.570;7.916;2022-10-16T00:29:22;5.30;;;2.60;;
10154;SDS011;5118;48.570;7.916;2022-10-16T00:31:52;4.13;;;2.73;;
10154;SDS011;5118;48.570;7.916;2022-10-16T00:34:20;3.13;;;2.47;;
10154;SDS011;5118;48.570;7.916;2022-10-16T00:36:48;3.30;;;2.40;;
10154;SDS011;5118;48.570;7.916;2022-10-16T00:39:17;11.17;;;2.20;;
10154;SDS011;5118;48.570;7.916;2022-10-16T00:41:46;4.23;;;2.30;;
10154;SDS011;5118;48.570;7.916;2022-10-16T00:47:11;3.73;;;1.90;;
10154;SDS011;5118;48.570;7.916;2022-10-16T00:49:43;4.00;;;2.30;;
10154;SDS011;5118;48.570;7.916;2022-10-16T00:52:12;5.80;;;2.33;;
10154;SDS011;5118;48.570;7.916;2022-10-16T00:54:42;5.27;;;2.20;;
10154;SDS011;5118;48.570;7.916;2022-10-16T00:57:10;5.97;;;2.20;;
10154;SDS011;5118;48.570;7.916;2022-10-16T00:59:40;3.40;;;2.03;;
10154;SDS011;5118;48.570;7.916;2022-10-16T01:02:12;3.65;;;2.35;;
10154;SDS011;5118;48.570;7.916;2022-10-16T01:04:43;3.03;;;1.90;;
10154;SDS011;5118;48.570;7.916;2022-10-16T01:07:18;5.45;;;2.22;;
10154;SDS011;5118;48.570;7.916;2022-10-16T01:09:57;2.47;;;2.20;;
10154;SDS011;5118;48.570;7.916;2022-10-16T01:12:38;2.90;;;2.10;;
10154;SDS011;5118;48.570;7.916;2022-10-16T01:15:14;4.82;;;2.10;;
10154;SDS011;5118;48.570;7.916;2022-10-16T01:17:51;2.85;;;2.30;;
10154;SDS011;5118;48.570;7.916;2022-10-16T01:20:26;3.72;;;2.17;;
10154;SDS011;5118;48.570;7.916;2022-10-16T01:23:02;7.18;;;2.35;;
10154;SDS011;5118;48.570;7.916;2022-10-16T01:25:40;7.70;;;2.10;;
10154;SDS011;5118;48.570;7.916;2022-10-16T01:28:29;2.10;;;1.87;;
10154;SDS011;5118;48.570;7.916;2022-10-16T01:31:04;4.63;;;1.92;;
10154;SDS011;5118;48.570;7.916;2022-10-16T01:33:35;4.20;;;1.95;;
10154;SDS011;5118;48.570;7.916;2022-10-16T01:36:10;5.43;;;2.17;;
10154;SDS011;5118;48.570;7.916;2022-10-16T01:38:41;2.37;;;2.03;;
10154;SDS011;5118;48.570;7.916;2022-10-16T01:41:14;3.57;;;2.00;;
10154;SDS011;5118;48.570;7.916;2022-10-16T01:43:48;4.87;;;2.33;;
10154;SDS011;5118;48.570;7.916;2022-10-16T01:46:20;4.15;;;2.00;;
10154;SDS011;5118;48.570;7.916;2022-10-16T01:48:50;2.08;;;1.90;;
10154;SDS011;5118;48.570;7.916;2022-10-16T01:51:19;5.05;;;2.22;;
10154;SDS011;5118;48.570;7.916;2022-10-16T01:53:50;2.87;;;2.20;;
10154;SDS011;5118;48.570;7.916;2022-10-16T01:56:20;4.77;;;1.90;;
10154;SDS011;5118;48.570;7.916;2022-10-16T01:58:52;6.47;;;2.40;;
10154;SDS011;5118;48.570;7.916;2022-10-16T02:01:24;4.87;;;2.30;;
10154;SDS011;5118;48.570;7.916;2022-10-16T02:03:57;3.50;;;2.60;;
10154;SDS011;5118;48.570;7.916;2022-10-16T02:06:29;6.07;;;2.60;;
10154;SDS011;5118;48.570;7.916;2022-10-16T02:08:58;5.07;;;2.50;;
10154;SDS011;5118;48.570;7.916;2022-10-16T02:11:29;4.30;;;2.70;;
10154;SDS011;5118;48.570;7.916;2022-10-16T02:14:00;5.27;;;2.27;;
10154;SDS011;5118;48.570;7.916;2022-10-16T02:16:35;5.87;;;2.47;;
10154;SDS011;5118;48.570;7.916;2022-10-16T02:19:05;5.77;;;2.60;;
10154;SDS011;5118;48.570;7.916;2022-10-16T02:21:35;6.53;;;2.33;;
10154;SDS011;5118;48.570;7.916;2022-10-16T02:24:12;5.13;;;2.40;;
10154;SDS011;5118;48.570;7.916;2022-10-16T02:26:49;5.10;;;2.37;;
10154;SDS011;5118;48.570;7.916;2022-10-16T02:29:22;2.77;;;2.43;;
10154;SDS011;5118;48.570;7.916;2022-10-16T02:31:54;5.07;;;2.50;;
10154;SDS011;5118;48.570;7.916;2022-10-16T02:34:27;3.60;;;2.40;;
10154;SDS011;5118;48.570;7.916;2022-10-16T02:36:57;4.68;;;2.53;;
10154;SDS011;5118;48.570;7.916;2022-10-16T02:39:27;3.03;;;2.50;;
10154;SDS011;5118;48.570;7.916;2022-10-16T02:41:56;4.32;;;2.42;;
10154;SDS011;5118;48.570;7.916;2022-10-16T02:44:26;6.47;;;2.77;;
10154;SDS011;5118;48.570;7.916;2022-10-16T02:46:55;6.20;;;2.73;;
10154;SDS011;5118;48.570;7.916;2022-10-16T02:49:25;4.47;;;2.40;;
10154;SDS011;5118;48.570;7.916;2022-10-16T02:51:53;3.67;;;2.50;;
10154;SDS011;5118;48.570;7.916;2022-10-16T02:54:21;6.70;;;2.50;;
10154;SDS011;5118;48.570;7.916;2022-10-16T02:56:50;4.38;;;2.50;;
10154;SDS011;5118;48.570;7.916;2022-10-16T02:59:18;4.20;;;2.80;;
10154;SDS011;5118;48.570;7.916;2022-10-16T03:01:48;6.00;;;2.90;;
10154;SDS011;5118;48.570;7.916;2022-10-16T03:04:17;5.55;;;3.00;;
10154;SDS011;5118;48.570;7.916;2022-10-16T03:06:45;5.03;;;3.13;;
10154;SDS011;5118;48.570;7.916;2022-10-16T03:09:13;10.25;;;2.97;;
10154;SDS011;5118;48.570;7.916;2022-10-16T03:11:42;7.70;;;3.57;;
10154;SDS011;5118;48.570;7.916;2022-10-16T03:14:10;6.43;;;3.10;;
10154;SDS011;5118;48.570;7.916;2022-10-16T03:16:39;4.60;;;3.00;;
10154;SDS011;5118;48.570;7.916;2022-10-16T03:19:08;4.53;;;2.90;;
10154;SDS011;5118;48.570;7.916;2022-10-16T03:21:37;7.10;;;3.27;;
10154;SDS011;5118;48.570;7.916;2022-10-16T03:24:05;6.50;;;3.07;;
10154;SDS011;5118;48.570;7.916;2022-10-16T03:26:33;3.87;;;3.10;;
10154;SDS011;5118;48.570;7.916;2022-10-16T03:29:02;7.77;;;3.30;;
10154;SDS011;5118;48.570;7.916;2022-10-16T03:31:31;8.70;;;3.20;;
10154;SDS011;5118;48.570;7.916;2022-10-16T03:34:00;5.97;;;3.57;;
10154;SDS011;5118;48.570;7.916;2022-10-16T03:36:30;4.10;;;3.03;;
10154;SDS011;5118;48.570;7.916;2022-10-16T03:38:59;5.50;;;3.00;;
10154;SDS011;5118;48.570;7.916;2022-10-16T03:41:28;5.37;;;3.20;;
10154;SDS011;5118;48.570;7.916;2022-10-16T03:43:56;4.47;;;3.27;;
10154;SDS011;5118;48.570;7.916;2022-10-16T03:46:25;4.43;;;3.07;;
10154;SDS011;5118;48.570;7.916;2022-10-16T03:48:53;6.23;;;3.17;;
10154;SDS011;5118;48.570;7.916;2022-10-16T03:51:21;10.03;;;3.40;;
10154;SDS011;5118;48.570;7.916;2022-10-16T03:53:51;6.00;;;3.63;;
10154;SDS011;5118;48.570;7.916;2022-10-16T03:56:19;6.27;;;3.27;;
10154;SDS011;5118;48.570;7.916;2022-10-16T03:58:48;4.70;;;3.00;;
10154;SDS011;5118;48.570;7.916;2022-10-16T04:01:16;5.97;;;3.07;;
10154;SDS011;5118;48.570;7.916;2022-10-16T04:03:44;4.27;;;3.07;;
10154;SDS011;5118;48.570;7.916;2022-10-16T04:06:15;6.03;;;3.30;;
10154;SDS011;5118;48.570;7.916;2022-10-16T04:08:43;7.80;;;3.20;;
10154;SDS011;5118;48.570;7.916;2022-10-16T04:11:15;6.07;;;3.20;;
10154;SDS011;5118;48.570;7.916;2022-10-16T04:13:43;4.00;;;2.90;;
10154;SDS011;5118;48.570;7.916;2022-10-16T04:16:12;4.37;;;3.23;;
10154;SDS011;5118;48.570;7.916;2022-10-16T04:18:40;5.03;;;3.23;;
10154;SDS011;5118;48.570;7.916;2022-10-16T04:21:08;3.57;;;3.00;;
10154;SDS011;5118;48.570;7.916;2022-10-16T04:23:37;7.63;;;3.30;;
10154;SDS011;5118;48.570;7.916;2022-10-16T04:26:05;4.50;;;3.03;;
10154;SDS011;5118;48.570;7.916;2022-10-16T04:28:35;4.03;;;3.00;;
10154;SDS011;5118;48.570;7.916;2022-10-16T04:31:04;5.50;;;3.13;;
10154;SDS011;5118;48.570;7.916;2022-10-16T04:33:32;3.97;;;3.10;;
10154;SDS011;5118;48.570;7.916;2022-10-16T04:36:02;5.93;;;3.30;;
10154;SDS011;5118;48.570;7.916;2022-10-16T04:38:31;8.60;;;3.60;;
10154;SDS011;5118;48.570;7.916;2022-10-16T04:40:59;6.30;;;3.20;;
10154;SDS011;5118;48.570;7.916;2022-10-16T04:43:28;4.77;;;3.27;;
10154;SDS011;5118;48.570;7.916;2022-10-16T04:45:57;9.07;;;3.40;;
10154;SDS011;5118;48.570;7.916;2022-10-16T04:48:33;5.17;;;3.13;;
10154;SDS011;5118;48.570;7.916;2022-10-16T04:51:01;4.43;;;3.40;;
10154;SDS011;5118;48.570;7.916;2022-10-16T04:53:30;4.17;;;3.10;;
10154;SDS011;5118;48.570;7.916;2022-10-16T04:55:59;7.70;;;3.47;;
10154;SDS011;5118;48.570;7.916;2022-10-16T04:58:32;9.70;;;3.87;;
10154;SDS011;5118;48.570;7.916;2022-10-16T05:01:07;6.53;;;3.40;;
10154;SDS011;5118;48.570;7.916;2022-10-16T05:03:35;6.40;;;3.30;;
10154;SDS011;5118;48.570;7.916;2022-10-16T05:06:12;5.37;;;3.50;;
10154;SDS011;5118;48.570;7.916;2022-10-16T05:08:41;3.87;;;3.47;;
10154;SDS011;5118;48.570;7.916;2022-10-16T05:11:09;4.67;;;3.30;;
10154;SDS011;5118;48.570;7.916;2022-10-16T05:13:40;7.20;;;3.30;;
10154;SDS011;5118;48.570;7.916;2022-10-16T05:16:12;4.23;;;3.57;;
10154;SDS011;5118;48.570;7.916;2022-10-16T05:18:40;5.03;;;3.43;;
10154;SDS011;5118;48.570;7.916;2022-10-16T05:21:09;5.17;;;3.50;;
10154;SDS011;5118;48.570;7.916;2022-10-16T05:23:37;6.63;;;3.40;;
10154;SDS011;5118;48.570;7.916;2022-10-16T05:26:08;5.77;;;3.50;;
10154;SDS011;5118;48.570;7.916;2022-10-16T05:28:36;6.47;;;3.53;;
10154;SDS011;5118;48.570;7.916;2022-10-16T05:31:05;5.73;;;3.37;;
10154;SDS011;5118;48.570;7.916;2022-10-16T05:33:35;6.17;;;3.70;;
10154;SDS011;5118;48.570;7.916;2022-10-16T05:36:07;6.67;;;3.90;;
10154;SDS011;5118;48.570;7.916;2022-10-16T05:38:37;8.23;;;3.80;;
10154;SDS011;5118;48.570;7.916;2022-10-16T05:41:08;4.97;;;3.47;;
10154;SDS011;5118;48.570;7.916;2022-10-16T05:43:46;10.57;;;3.87;;
10154;SDS011;5118;48.570;7.916;2022-10-16T05:46:19;5.67;;;4.40;;
10154;SDS011;5118;48.570;7.916;2022-10-16T05:48:51;5.13;;;4.00;;
10154;SDS011;5118;48.570;7.916;2022-10-16T05:51:19;4.47;;;3.40;;
10154;SDS011;5118;48.570;7.916;2022-10-16T05:53:53;6.80;;;3.40;;
10154;SDS011;5118;48.570;7.916;2022-10-16T05:56:24;6.97;;;3.47;;
10154;SDS011;5118;48.570;7.916;2022-10-16T05:58:55;4.93;;;3.63;;
10154;SDS011;5118;48.570;7.916;2022-10-16T06:01:24;6.03;;;3.50;;
10154;SDS011;5118;48.570;7.916;2022-10-16T06:03:59;8.17;;;3.30;;
10154;SDS011;5118;48.570;7.916;2022-10-16T06:06:30;5.47;;;3.53;;
10154;SDS011;5118;48.570;7.916;2022-10-16T06:09:02;5.93;;;3.90;;
10154;SDS011;5118;48.570;7.916;2022-10-16T06:11:32;6.07;;;4.00;;
10154;SDS011;5118;48.570;7.916;2022-10-16T06:14:04;8.93;;;3.80;;
10154;SDS011;5118;48.570;7.916;2022-10-16T06:16:37;6.23;;;3.60;;
10154;SDS011;5118;48.570;7.916;2022-10-16T06:19:07;4.40;;;3.90;;
10154;SDS011;5118;48.570;7.916;2022-10-16T06:21:44;7.00;;;5.00;;
10154;SDS011;5118;48.570;7.916;2022-10-16T06:24:14;14.03;;;6.63;;
10154;SDS011;5118;48.570;7.916;2022-10-16T06:26:42;6.13;;;4.00;;
10154;SDS011;5118;48.570;7.916;2022-10-16T06:29:11;6.72;;;5.68;;
10154;SDS011;5118;48.570;7.916;2022-10-16T06:31:39;6.00;;;3.60;;
10154;SDS011;5118;48.570;7.916;2022-10-16T06:34:09;4.93;;;3.27;;
10154;SDS011;5118;48.570;7.916;2022-10-16T06:36:38;7.37;;;3.20;;
10154;SDS011;5118;48.570;7.916;2022-10-16T06:39:07;7.47;;;3.40;;
10154;SDS011;5118;48.570;7.916;2022-10-16T06:41:38;8.53;;;3.50;;
10154;SDS011;5118;48.570;7.916;2022-10-16T06:44:15;4.18;;;2.92;;
10154;SDS011;5118;48.570;7.916;2022-10-16T06:46:43;5.03;;;3.07;;
10154;SDS011;5118;48.570;7.916;2022-10-16T06:49:13;4.03;;;3.27;;
10154;SDS011;5118;48.570;7.916;2022-10-16T06:51:47;4.20;;;3.60;;
10154;SDS011;5118;48.570;7.916;2022-10-16T06:54:16;4.20;;;3.80;;
10154;SDS011;5118;48.570;7.916;2022-10-16T06:56:45;7.93;;;3.37;;
10154;SDS011;5118;48.570;7.916;2022-10-16T06:59:13;4.70;;;3.20;;
10154;SDS011;5118;48.570;7.916;2022-10-16T07:01:41;4.83;;;3.43;;
10154;SDS011;5118;48.570;7.916;2022-10-16T07:04:09;6.37;;;3.27;;
10154;SDS011;5118;48.570;7.916;2022-10-16T07:06:39;8.13;;;4.10;;
10154;SDS011;5118;48.570;7.916;2022-10-16T07:09:08;4.37;;;2.90;;
10154;SDS011;5118;48.570;7.916;2022-10-16T07:11:38;4.30;;;2.90;;
10154;SDS011;5118;48.570;7.916;2022-10-16T07:14:10;5.88;;;5.38;;
10154;SDS011;5118;48.570;7.916;2022-10-16T07:16:41;5.93;;;5.20;;
10154;SDS011;5118;48.570;7.916;2022-10-16T07:19:10;10.63;;;8.32;;
10154;SDS011;5118;48.570;7.916;2022-10-16T07:21:42;6.68;;;3.78;;
10154;SDS011;5118;48.570;7.916;2022-10-16T07:24:11;3.55;;;2.97;;
10154;SDS011;5118;48.570;7.916;2022-10-16T07:26:42;7.35;;;4.30;;
10154;SDS011;5118;48.570;7.916;2022-10-16T07:29:12;7.70;;;3.70;;
10154;SDS011;5118;48.570;7.916;2022-10-16T07:31:42;8.73;;;4.43;;
10154;SDS011;5118;48.570;7.916;2022-10-16T07:34:11;8.52;;;3.78;;
10154;SDS011;5118;48.570;7.916;2022-10-16T07:36:43;4.47;;;3.65;;
10154;SDS011;5118;48.570;7.916;2022-10-16T07:39:12;6.72;;;4.95;;
10154;SDS011;5118;48.570;7.916;2022-10-16T07:41:41;5.07;;;3.22;;
10154;SDS011;5118;48.570;7.916;2022-10-16T07:44:09;5.93;;;3.20;;
10154;SDS011;5118;48.570;7.916;2022-10-16T07:46:37;6.40;;;3.53;;
10154;SDS011;5118;48.570;7.916;2022-10-16T07:49:06;4.07;;;3.30;;
10154;SDS011;5118;48.570;7.916;2022-10-16T07:51:34;8.48;;;3.33;;
10154;SDS011;5118;48.570;7.916;2022-10-16T07:54:07;3.17;;;2.67;;
10154;SDS011;5118;48.570;7.916;2022-10-16T07:56:35;4.13;;;2.90;;
10154;SDS011;5118;48.570;7.916;2022-10-16T07:59:09;3.70;;;2.65;;
10154;SDS011;5118;48.570;7.916;2022-10-16T08:01:38;4.85;;;2.70;;
10154;SDS011;5118;48.570;7.916;2022-10-16T08:04:06;6.43;;;2.88;;
10154;SDS011;5118;48.570;7.916;2022-10-16T08:06:36;8.02;;;2.85;;
10154;SDS011;5118;48.570;7.916;2022-10-16T08:09:08;5.45;;;2.75;;
10154;SDS011;5118;48.570;7.916;2022-10-16T08:11:37;5.07;;;2.40;;
10154;SDS011;5118;48.570;7.916;2022-10-16T08:14:05;7.53;;;2.80;;
10154;SDS011;5118;48.570;7.916;2022-10-16T08:16:33;5.88;;;2.92;;
10154;SDS011;5118;48.570;7.916;2022-10-16T08:19:01;5.50;;;3.03;;
10154;SDS011;5118;48.570;7.916;2022-10-16T08:21:30;5.95;;;2.88;;
10154;SDS011;5118;48.570;7.916;2022-10-16T08:23:58;3.38;;;2.50;;
10154;SDS011;5118;48.570;7.916;2022-10-16T08:26:29;6.43;;;3.10;;
10154;SDS011;5118;48.570;7.916;2022-10-16T08:28:57;6.90;;;3.05;;
10154;SDS011;5118;48.570;7.916;2022-10-16T08:31:26;4.15;;;2.88;;
10154;SDS011;5118;48.570;7.916;2022-10-16T08:33:54;5.90;;;3.88;;
10154;SDS011;5118;48.570;7.916;2022-10-16T08:36:22;7.45;;;4.13;;
10154;SDS011;5118;48.570;7.916;2022-10-16T08:38:51;5.10;;;4.70;;
10154;SDS011;5118;48.570;7.916;2022-10-16T08:41:31;5.15;;;3.85;;
10154;SDS011;5118;48.570;7.916;2022-10-16T08:44:20;6.38;;;3.00;;
10154;SDS011;5118;48.570;7.916;2022-10-16T08:47:00;7.88;;;2.88;;
10154;SDS011;5118;48.570;7.916;2022-10-16T08:49:35;5.80;;;2.80;;
10154;SDS011;5118;48.570;7.916;2022-10-16T08:52:06;3.35;;;2.70;;
10154;SDS011;5118;48.570;7.916;2022-10-16T08:54:41;4.00;;;2.63;;
10154;SDS011;5118;48.570;7.916;2022-10-16T08:57:16;5.38;;;2.17;;
10154;SDS011;5118;48.570;7.916;2022-10-16T08:59:50;4.50;;;2.35;;
10154;SDS011;5118;48.570;7.916;2022-10-16T09:02:23;3.45;;;2.20;;
10154;SDS011;5118;48.570;7.916;2022-10-16T09:07:53;8.43;;;2.30;;
10154;SDS011;5118;48.570;7.916;2022-10-16T09:10:34;6.63;;;2.55;;
10154;SDS011;5118;48.570;7.916;2022-10-16T09:13:14;6.88;;;2.25;;
10154;SDS011;5118;48.570;7.916;2022-10-16T09:15:50;5.32;;;2.38;;
10154;SDS011;5118;48.570;7.916;2022-10-16T09:18:24;4.07;;;2.25;;
10154;SDS011;5118;48.570;7.916;2022-10-16T09:20:59;3.53;;;2.10;;
10154;SDS011;5118;48.570;7.916;2022-10-16T09:23:36;3.53;;;2.30;;
10154;SDS011;5118;48.570;7.916;2022-10-16T09:26:05;6.10;;;2.25;;
10154;SDS011;5118;48.570;7.916;2022-10-16T09:28:41;5.30;;;2.60;;
10154;SDS011;5118;48.570;7.916;2022-10-16T09:31:13;5.30;;;2.50;;
10154;SDS011;5118;48.570;7.916;2022-10-16T09:33:53;3.35;;;2.50;;
10154;SDS011;5118;48.570;7.916;2022-10-16T09:36:39;5.68;;;2.40;;
10154;SDS011;5118;48.570;7.916;2022-10-16T09:39:11;5.78;;;2.60;;
10154;SDS011;5118;48.570;7.916;2022-10-16T09:41:42;4.13;;;2.60;;
10154;SDS011;5118;48.570;7.916;2022-10-16T09:44:23;4.18;;;2.50;;
10154;SDS011;5118;48.570;7.916;2022-10-16T09:47:02;4.18;;;2.67;;
10154;SDS011;5118;48.570;7.916;2022-10-16T09:49:31;6.60;;;2.72;;
10154;SDS011;5118;48.570;7.916;2022-10-16T09:52:03;3.25;;;2.50;;
10154;SDS011;5118;48.570;7.916;2022-10-16T09:54:34;4.80;;;2.70;;
10154;SDS011;5118;48.570;7.916;2022-10-16T09:57:05;3.38;;;2.72;;
10154;SDS011;5118;48.570;7.916;2022-10-16T09:59:44;4.10;;;2.40;;
10154;SDS011;5118;48.570;7.916;2022-10-16T10:02:14;2.80;;;2.30;;
10154;SDS011;5118;48.570;7.916;2022-10-16T10:04:47;7.25;;;2.53;;
10154;SDS011;5118;48.570;7.916;2022-10-16T10:07:18;6.55;;;2.90;;
10154;SDS011;5118;48.570;7.916;2022-10-16T10:09:52;5.18;;;2.70;;
10154;SDS011;5118;48.570;7.916;2022-10-16T10:12:23;5.82;;;2.40;;
10154;SDS011;5118;48.570;7.916;2022-10-16T10:14:54;3.92;;;2.88;;
10154;SDS011;5118;48.570;7.916;2022-10-16T10:17:25;3.58;;;2.63;;
10154;SDS011;5118;48.570;7.916;2022-10-16T10:19:56;3.38;;;2.78;;
10154;SDS011;5118;48.570;7.916;2022-10-16T10:22:39;4.32;;;3.80;;
10154;SDS011;5118;48.570;7.916;2022-10-16T10:25:15;4.68;;;2.40;;
10154;SDS011;5118;48.570;7.916;2022-10-16T10:28:08;5.93;;;2.70;;
10154;SDS011;5118;48.570;7.916;2022-10-16T10:31:08;8.38;;;2.50;;
10154;SDS011;5118;48.570;7.916;2022-10-16T10:33:43;10.45;;;2.50;;
10154;SDS011;5118;48.570;7.916;2022-10-16T10:36:23;4.38;;;3.55;;
10154;SDS011;5118;48.570;7.916;2022-10-16T10:38:57;3.92;;;2.63;;
10154;SDS011;5118;48.570;7.916;2022-10-16T10:41:37;3.58;;;2.70;;
10154;SDS011;5118;48.570;7.916;2022-10-16T10:44:27;4.43;;;2.40;;
10154;SDS011;5118;48.570;7.916;2022-10-16T10:47:08;4.22;;;2.40;;
10154;SDS011;5118;48.570;7.916;2022-10-16T10:49:48;3.10;;;2.08;;
10154;SDS011;5118;48.570;7.916;2022-10-16T10:55:19;6.35;;;2.30;;
10154;SDS011;5118;48.570;7.916;2022-10-16T10:57:59;9.50;;;2.30;;
10154;SDS011;5118;48.570;7.916;2022-10-16T11:00:45;4.90;;;2.15;;
10154;SDS011;5118;48.570;7.916;2022-10-16T11:03:27;7.80;;;3.85;;
10154;SDS011;5118;48.570;7.916;2022-10-16T11:06:14;6.45;;;2.40;;
10154;SDS011;5118;48.570;7.916;2022-10-16T11:08:47;6.40;;;2.88;;
10154;SDS011;5118;48.570;7.916;2022-10-16T11:11:29;4.82;;;2.25;;
10154;SDS011;5118;48.570;7.916;2022-10-16T11:14:05;4.30;;;2.55;;
10154;SDS011;5118;48.570;7.916;2022-10-16T11:16:43;8.75;;;5.65;;
10154;SDS011;5118;48.570;7.916;2022-10-16T11:19:19;10.73;;;4.10;;
10154;SDS011;5118;48.570;7.916;2022-10-16T11:21:54;6.05;;;2.33;;
10154;SDS011;5118;48.570;7.916;2022-10-16T11:24:32;6.80;;;2.20;;
10154;SDS011;5118;48.570;7.916;2022-10-16T11:27:08;4.22;;;2.10;;
10154;SDS011;5118;48.570;7.916;2022-10-16T11:29:43;5.70;;;1.92;;
10154;SDS011;5118;48.570;7.916;2022-10-16T11:32:19;9.07;;;2.15;;
10154;SDS011;5118;48.570;7.916;2022-10-16T11:34:57;6.25;;;2.13;;
10154;SDS011;5118;48.570;7.916;2022-10-16T11:37:30;5.70;;;2.30;;
10154;SDS011;5118;48.570;7.916;2022-10-16T11:40:05;3.08;;;2.03;;
10154;SDS011;5118;48.570;7.916;2022-10-16T11:42:46;7.57;;;2.50;;
10154;SDS011;5118;48.570;7.916;2022-10-16T11:45:24;3.38;;;2.13;;
10154;SDS011;5118;48.570;7.916;2022-10-16T11:48:04;3.70;;;2.30;;
10154;SDS011;5118;48.570;7.916;2022-10-16T11:50:43;3.85;;;2.50;;
10154;SDS011;5118;48.570;7.916;2022-10-16T11:53:21;7.97;;;2.53;;
10154;SDS011;5118;48.570;7.916;2022-10-16T11:56:03;5.28;;;2.20;;
10154;SDS011;5118;48.570;7.916;2022-10-16T11:58:36;4.38;;;2.03;;
10154;SDS011;5118;48.570;7.916;2022-10-16T12:01:14;6.80;;;2.00;;
10154;SDS011;5118;48.570;7.916;2022-10-16T12:04:06;2.90;;;1.80;;
10154;SDS011;5118;48.570;7.916;2022-10-16T12:06:46;4.57;;;2.15;;
10154;SDS011;5118;48.570;7.916;2022-10-16T12:09:20;7.20;;;2.13;;
10154;SDS011;5118;48.570;7.916;2022-10-16T12:11:56;4.60;;;2.20;;
10154;SDS011;5118;48.570;7.916;2022-10-16T12:14:34;3.40;;;1.80;;
10154;SDS011;5118;48.570;7.916;2022-10-16T12:17:34;4.90;;;2.10;;
10154;SDS011;5118;48.570;7.916;2022-10-16T12:20:21;3.00;;;1.70;;
10154;SDS011;5118;48.570;7.916;2022-10-16T12:22:58;5.78;;;2.25;;
10154;SDS011;5118;48.570;7.916;2022-10-16T12:25:29;5.88;;;2.42;;
10154;SDS011;5118;48.570;7.916;2022-10-16T12:28:00;10.00;;;7.90;;
10154;SDS011;5118;48.570;7.916;2022-10-16T12:30:32;6.15;;;2.35;;
10154;SDS011;5118;48.570;7.916;2022-10-16T12:33:02;5.18;;;1.90;;
10154;SDS011;5118;48.570;7.916;2022-10-16T12:35:34;2.15;;;1.95;;
10154;SDS011;5118;48.570;7.916;2022-10-16T12:38:19;5.43;;;1.90;;
10154;SDS011;5118;48.570;7.916;2022-10-16T12:40:55;4.95;;;2.22;;
10154;SDS011;5118;48.570;7.916;2022-10-16T12:43:28;6.35;;;2.55;;
10154;SDS011;5118;48.570;7.916;2022-10-16T12:46:05;2.47;;;2.10;;
10154;SDS011;5118;48.570;7.916;2022-10-16T12:48:48;5.85;;;1.95;;
10154;SDS011;5118;48.570;7.916;2022-10-16T12:51:35;4.15;;;2.00;;
10154;SDS011;5118;48.570;7.916;2022-10-16T12:54:11;1.88;;;1.70;;
10154;SDS011;5118;48.570;7.916;2022-10-16T12:56:45;1.80;;;1.70;;
10154;SDS011;5118;48.570;7.916;2022-10-16T12:59:28;2.90;;;1.90;;
10154;SDS011;5118;48.570;7.916;2022-10-16T13:02:11;3.80;;;1.80;;
10154;SDS011;5118;48.570;7.916;2022-10-16T13:05:21;5.75;;;1.95;;
10154;SDS011;5118;48.570;7.916;2022-10-16T13:08:09;2.28;;;1.88;;
10154;SDS011;5118;48.570;7.916;2022-10-16T13:10:53;3.83;;;1.98;;
10154;SDS011;5118;48.570;7.916;2022-10-16T13:13:43;3.35;;;2.00;;
10154;SDS011;5118;48.570;7.916;2022-10-16T13:16:25;3.78;;;1.90;;
10154;SDS011;5118;48.570;7.916;2022-10-16T13:19:08;4.18;;;1.95;;
10154;SDS011;5118;48.570;7.916;2022-10-16T13:21:51;3.33;;;2.00;;
10154;SDS011;5118;48.570;7.916;2022-10-16T13:24:36;3.38;;;2.20;;
10154;SDS011;5118;48.570;7.916;2022-10-16T13:27:18;4.70;;;1.77;;
10154;SDS011;5118;48.570;7.916;2022-10-16T13:30:10;4.13;;;1.80;;
10154;SDS011;5118;48.570;7.916;2022-10-16T13:32:46;3.85;;;2.20;;
10154;SDS011;5118;48.570;7.916;2022-10-16T13:35:21;4.22;;;2.08;;
10154;SDS011;5118;48.570;7.916;2022-10-16T13:38:03;4.10;;;2.00;;
10154;SDS011;5118;48.570;7.916;2022-10-16T13:40:51;4.53;;;2.13;;
10154;SDS011;5118;48.570;7.916;2022-10-16T13:43:27;3.45;;;2.42;;
10154;SDS011;5118;48.570;7.916;2022-10-16T13:46:18;5.63;;;2.08;;
10154;SDS011;5118;48.570;7.916;2022-10-16T13:48:57;4.18;;;2.17;;
10154;SDS011;5118;48.570;7.916;2022-10-16T13:51:33;3.90;;;1.98;;
10154;SDS011;5118;48.570;7.916;2022-10-16T13:54:09;6.28;;;2.10;;
10154;SDS011;5118;48.570;7.916;2022-10-16T13:56:45;8.70;;;2.33;;
10154;SDS011;5118;48.570;7.916;2022-10-16T13:59:34;6.50;;;2.40;;
10154;SDS011;5118;48.570;7.916;2022-10-16T14:02:10;7.30;;;2.22;;
10154;SDS011;5118;48.570;7.916;2022-10-16T14:04:47;3.13;;;2.08;;
10154;SDS011;5118;48.570;7.916;2022-10-16T14:07:18;3.35;;;1.98;;
10154;SDS011;5118;48.570;7.916;2022-10-16T14:09:53;1.85;;;1.65;;
10154;SDS011;5118;48.570;7.916;2022-10-16T14:12:22;5.43;;;1.85;;
10154;SDS011;5118;48.570;7.916;2022-10-16T14:14:55;4.00;;;1.88;;
10154;SDS011;5118;48.570;7.916;2022-10-16T14:17:28;3.55;;;1.77;;
10154;SDS011;5118;48.570;7.916;2022-10-16T14:20:24;5.28;;;1.85;;
10154;SDS011;5118;48.570;7.916;2022-10-16T14:23:00;3.88;;;1.85;;
10154;SDS011;5118;48.570;7.916;2022-10-16T14:25:33;4.05;;;1.90;;
10154;SDS011;5118;48.570;7.916;2022-10-16T14:28:14;3.42;;;1.90;;
10154;SDS011;5118;48.570;7.916;2022-10-16T14:30:53;4.60;;;1.70;;
10154;SDS011;5118;48.570;7.916;2022-10-16T14:33:32;3.05;;;1.70;;
10154;SDS011;5118;48.570;7.916;2022-10-16T14:36:11;3.95;;;1.90;;
10154;SDS011;5118;48.570;7.916;2022-10-16T14:38:48;3.08;;;1.90;;
10154;SDS011;5118;48.570;7.916;2022-10-16T14:41:30;5.57;;;1.80;;
10154;SDS011;5118;48.570;7.916;2022-10-16T14:44:09;4.80;;;1.98;;
10154;SDS011;5118;48.570;7.916;2022-10-16T14:46:43;1.90;;;1.70;;
10154;SDS011;5118;48.570;7.916;2022-10-16T14:49:15;2.53;;;1.70;;
10154;SDS011;5118;48.570;7.916;2022-10-16T14:51:59;3.38;;;1.88;;
10154;SDS011;5118;48.570;7.916;2022-10-16T14:54:41;1.77;;;1.63;;
10154;SDS011;5118;48.570;7.916;2022-10-16T14:57:18;3.53;;;1.77;;
10154;SDS011;5118;48.570;7.916;2022-10-16T14:59:53;4.68;;;1.80;;
10154;SDS011;5118;48.570;7.916;2022-10-16T15:02:29;4.13;;;1.80;;
10154;SDS011;5118;48.570;7.916;2022-10-16T15:05:10;3.65;;;2.00;;
10154;SDS011;5118;48.570;7.916;2022-10-16T15:07:45;3.15;;;2.00;;
10154;SDS011;5118;48.570;7.916;2022-10-16T15:10:15;3.20;;;2.10;;
10154;SDS011;5118;48.570;7.916;2022-10-16T15:12:46;4.40;;;2.08;;
10154;SDS011;5118;48.570;7.916;2022-10-16T15:15:25;6.78;;;1.90;;
10154;SDS011;5118;48.570;7.916;2022-10-16T15:18:02;3.38;;;1.90;;
10154;SDS011;5118;48.570;7.916;2022-10-16T15:20:34;5.18;;;2.03;;
10154;SDS011;5118;48.570;7.916;2022-10-16T15:23:20;3.58;;;2.50;;
10154;SDS011;5118;48.570;7.916;2022-10-16T15:25:56;4.07;;;2.08;;
10154;SDS011;5118;48.570;7.916;2022-10-16T15:28:26;4.50;;;2.10;;
10154;SDS011;5118;48.570;7.916;2022-10-16T15:31:07;3.25;;;1.80;;
10154;SDS011;5118;48.570;7.916;2022-10-16T15:33:41;3.67;;;2.10;;
10154;SDS011;5118;48.570;7.916;2022-10-16T15:36:10;4.15;;;1.98;;
10154;SDS011;5118;48.570;7.916;2022-10-16T15:38:46;4.85;;;2.15;;
10154;SDS011;5118;48.570;7.916;2022-10-16T15:41:20;4.75;;;2.97;;
10154;SDS011;5118;48.570;7.916;2022-10-16T15:43:55;3.95;;;2.80;;
10154;SDS011;5118;48.570;7.916;2022-10-16T15:46:29;3.83;;;2.50;;
10154;SDS011;5118;48.570;7.916;2022-10-16T15:49:05;11.82;;;2.65;;